TW-0019 weather

Puli Christian Hospital Heliport
Puli, Nantou County, Taiwan

Public forecast

Using degrees Celsius for public forecast. Weather courtesy of forecast.io.

METAR (pilot weather report)

Closest report is Taichung Ching Chuang Kang Airport, 25.1 nm (46.5 km) NW. Retrieved 2019/07/22 23:30 UTC (13 minutes ago):

RCMQ 222330Z 17003KT 9999 FEW014 SCT200 28/23 Q1008 NOSIG RMK A2979

TAF (pilot weather forecast)

Closest forecast is Taichung Ching Chuang Kang Airport, 25.1 nm (46.5 km) NW. Retrieved 2019/07/22 18:21 UTC (5 hours ago):

TAF RCMQ 221700Z 2218/2318 18004KT 9999 FEW010 BKN060 TX32/2306Z TN27/2321Z BECMG 2220/2223 18008KT FEW012 SCT060 TEMPO 2303/2308 8000 RA FEW012 BKN030 BKN050 BECMG 2312/2315 16004KT FEW010 BKN060